Time;durP1;ratioP1;P1;durP2;ratioP2;P2;SDS_P1;SDS_P2;PMS_P1;PMS_P2;Temp;Humidity;BMP_temperature;BMP_pressure;BME280_temperature;BME280_humidity;BME280_pressure;Samples;Min_cycle;Max_cycle;Signal;HPM_P1;HPM_P2
2023/03/11 00:00:39;;;;;;;1.70;1.38;;;;;;;8.47;100.00;97646.66;5037954;28;20032;-76
2023/03/11 00:03:06;;;;;;;1.50;1.20;;;;;;;8.44;100.00;97639.97;5055972;28;20116;-82
2023/03/11 00:05:51;;;;;;;2.97;1.15;;;;;;;8.31;100.00;97632.16;5055286;28;20033;-79
2023/03/11 00:08:21;;;;;;;2.22;1.10;;;;;;;8.35;100.00;97644.03;5053718;28;20113;-79
2023/03/11 00:10:50;;;;;;;2.50;1.65;;;;;;;8.30;100.00;97644.09;5054994;28;20029;-79
2023/03/11 00:13:16;;;;;;;1.02;0.90;;;;;;;8.33;100.00;97646.63;5053496;28;20029;-79
2023/03/11 00:15:47;;;;;;;1.77;1.35;;;;;;;8.39;100.00;97655.84;5053095;28;20456;-77
2023/03/11 00:18:13;;;;;;;2.42;1.00;;;;;;;8.33;100.00;97634.47;5052127;28;20025;-77
2023/03/11 00:20:43;;;;;;;0.93;0.93;;;;;;;8.34;100.00;97633.94;5051222;28;20033;-77
2023/03/11 00:23:10;;;;;;;2.25;1.00;;;;;;;8.51;100.00;97641.44;5033341;28;20072;-78
2023/03/11 00:25:37;;;;;;;2.03;1.52;;;;;;;8.59;100.00;97628.09;5051709;28;20405;-77
2023/03/11 00:28:06;;;;;;;1.38;0.80;;;;;;;8.60;100.00;97649.53;5035256;28;20113;-77
2023/03/11 00:30:31;;;;;;;1.83;1.02;;;;;;;8.58;100.00;97637.94;5051600;28;20141;-77
2023/03/11 00:32:59;;;;;;;1.63;1.10;;;;;;;8.31;100.00;97608.66;5052096;28;20151;-78
2023/03/11 00:35:41;;;;;;;1.55;1.00;;;;;;;8.44;100.00;97644.91;5054214;28;20105;-77
2023/03/11 00:38:10;;;;;;;1.50;0.80;;;;;;;8.14;100.00;97591.06;5051901;28;20021;-77
2023/03/11 00:40:36;;;;;;;1.27;0.90;;;;;;;8.37;100.00;97643.47;5051773;28;20541;-78
2023/03/11 00:43:04;;;;;;;1.65;0.93;;;;;;;8.37;100.00;97638.53;5050665;28;20060;-77
2023/03/11 00:45:30;;;;;;;1.42;1.00;;;;;;;8.38;100.00;97640.06;5051814;28;20385;-77
2023/03/11 00:47:56;;;;;;;1.75;1.02;;;;;;;8.26;100.00;97635.13;5052917;28;20475;-78
2023/03/11 00:50:32;;;;;;;1.65;0.82;;;;;;;8.33;100.00;97640.94;5052650;28;20397;-78
2023/03/11 00:53:00;;;;;;;0.90;0.90;;;;;;;8.24;100.00;97638.50;5051526;28;20477;-76
2023/03/11 00:55:28;;;;;;;1.17;0.98;;;;;;;8.25;100.00;97637.22;5052276;28;20025;-78
2023/03/11 00:58:02;;;;;;;1.67;0.98;;;;;;;8.21;100.00;97642.41;5051412;28;20037;-77
2023/03/11 01:00:29;;;;;;;1.55;1.05;;;;;;;8.26;100.00;97647.25;5052536;28;20420;-77
2023/03/11 01:02:57;;;;;;;1.80;0.93;;;;;;;8.29;100.00;97642.56;5051009;28;20037;-78
2023/03/11 01:05:30;;;;;;;1.35;0.80;;;;;;;8.17;100.00;97636.28;5052303;28;20029;-78
2023/03/11 01:07:57;;;;;;;1.33;1.00;;;;;;;8.18;100.00;97646.34;5052604;28;20025;-78
2023/03/11 01:10:23;;;;;;;1.20;1.10;;;;;;;8.11;100.00;97635.59;5034868;28;20032;-79
2023/03/11 01:12:49;;;;;;;0.90;0.90;;;;;;;8.18;100.00;97645.59;5052148;28;20025;-78
2023/03/11 01:15:29;;;;;;;2.55;1.02;;;;;;;8.05;100.00;97643.44;5050928;28;20532;-77
2023/03/11 01:17:54;;;;;;;2.22;1.27;;;;;;;8.08;100.00;97644.44;5050885;28;20062;-79
2023/03/11 01:20:20;;;;;;;1.20;1.00;;;;;;;8.00;100.00;97654.91;5052418;28;20017;-80
2023/03/11 01:22:48;;;;;;;1.90;1.20;;;;;;;7.85;100.00;97641.94;5050715;28;20060;-77
2023/03/11 01:25:16;;;;;;;1.35;1.00;;;;;;;7.93;100.00;97657.06;5052504;28;20059;-77
2023/03/11 01:27:42;;;;;;;1.20;0.77;;;;;;;7.76;100.00;97648.03;5051920;28;20394;-79
2023/03/11 01:30:19;;;;;;;1.15;0.73;;;;;;;7.74;100.00;97661.22;5053237;28;20025;-76
2023/03/11 01:32:46;;;;;;;1.65;0.80;;;;;;;7.58;100.00;97659.38;5051794;28;20117;-79
2023/03/11 01:35:13;;;;;;;1.05;0.75;;;;;;;7.53;100.00;97660.97;5050856;28;20021;-77
2023/03/11 01:37:45;;;;;;;2.30;0.90;;;;;;;7.28;100.00;97642.47;5051813;28;20029;-78
2023/03/11 01:40:25;;;;;;;2.15;0.80;;;;;;;7.20;100.00;97659.34;5052409;28;20021;-77
2023/03/11 01:42:51;;;;;;;1.95;0.93;;;;;;;7.15;100.00;97667.94;5051570;28;20102;-79
2023/03/11 01:46:02;;;;;;;3.45;0.93;;;;;;;7.05;100.00;97659.78;5052760;28;20029;-78
2023/03/11 01:48:29;;;;;;;3.70;1.10;;;;;;;6.94;100.00;97676.16;5053216;28;20032;-78
2023/03/11 01:50:55;;;;;;;3.65;1.27;;;;;;;6.93;100.00;97666.88;5053101;28;20074;-76
2023/03/11 01:53:30;;;;;;;2.78;1.40;;;;;;;6.81;100.00;97676.81;5049552;28;20040;-77
2023/03/11 01:55:56;;;;;;;3.00;1.23;;;;;;;6.77;100.00;97681.25;5052712;28;20033;-79
2023/03/11 01:58:43;;;;;;;1.23;1.13;;;;;;;6.69;100.00;97683.88;5051492;28;20040;-77
2023/03/11 02:01:11;;;;;;;1.52;1.08;;;;;;;6.69;100.00;97675.38;5051975;28;20178;-80
2023/03/11 02:03:41;;;;;;;1.38;1.10;;;;;;;6.64;100.00;97668.47;5034800;28;20033;-77
2023/03/11 02:06:11;;;;;;;2.65;1.23;;;;;;;6.71;100.00;97677.69;5050220;28;20033;-79
2023/03/11 02:08:38;;;;;;;2.22;1.17;;;;;;;6.52;100.00;97637.91;5050428;28;20486;-77
2023/03/11 02:11:05;;;;;;;2.80;1.05;;;;;;;6.81;100.00;97676.03;5050410;28;20116;-79
2023/03/11 02:13:33;;;;;;;4.18;1.20;;;;;;;6.80;100.00;97674.50;5050358;28;20026;-77
2023/03/11 02:16:00;;;;;;;2.80;1.20;;;;;;;6.75;100.00;97684.63;5050258;28;20023;-78
2023/03/11 02:18:25;;;;;;;1.20;1.02;;;;;;;6.73;100.00;97683.63;5050304;28;20383;-78
2023/03/11 02:21:15;;;;;;;1.42;1.20;;;;;;;6.71;100.00;97689.03;5050039;28;20032;-78
2023/03/11 02:24:28;;;;;;;0.90;0.90;;;;;;;6.76;100.00;97680.47;5050399;28;20056;-79
2023/03/11 02:27:08;;;;;;;0.90;0.90;;;;;;;6.55;100.00;97665.19;5049031;28;20067;-78
2023/03/11 02:29:33;;;;;;;1.25;1.17;;;;;;;6.71;100.00;97681.31;5049229;28;20087;-79
2023/03/11 02:32:02;;;;;;;2.50;1.17;;;;;;;6.56;100.00;97672.41;5049453;28;20059;-80
2023/03/11 02:34:30;;;;;;;1.30;1.20;;;;;;;6.56;100.00;97672.41;5049527;28;20033;-80
2023/03/11 02:36:59;;;;;;;2.83;1.52;;;;;;;6.49;100.00;97678.66;5051336;28;20048;-81
2023/03/11 02:39:39;;;;;;;2.70;1.45;;;;;;;6.44;100.00;97677.41;5052680;28;20147;-80
2023/03/11 02:42:18;;;;;;;2.00;1.90;;;;;;;6.48;100.00;97671.47;5052424;28;20082;-79
2023/03/11 02:45:10;;;;;;;3.63;1.65;;;;;;;6.42;100.00;97668.69;5055548;28;20021;-81
2023/03/11 02:47:41;;;;;;;2.58;1.83;;;;;;;6.42;100.00;97663.00;5055810;28;20383;-80
2023/03/11 02:50:14;;;;;;;3.90;2.05;;;;;;;6.42;100.00;97670.75;5038394;28;20464;-79
2023/03/11 02:52:41;;;;;;;3.95;2.17;;;;;;;6.41;100.00;97674.88;5038608;28;20112;-80
2023/03/11 02:55:23;;;;;;;2.20;2.00;;;;;;;6.34;100.00;97681.88;5038202;28;20037;-80
2023/03/11 02:57:50;;;;;;;2.25;1.98;;;;;;;6.16;100.00;97659.84;5056110;28;20044;-79
2023/03/11 03:00:17;;;;;;;2.40;2.20;;;;;;;6.20;100.00;97672.44;5055911;28;20390;-81
2023/03/11 03:02:45;;;;;;;3.85;2.15;;;;;;;6.29;100.00;97676.25;5051615;28;20071;-81
2023/03/11 03:05:12;;;;;;;2.65;2.08;;;;;;;6.38;100.00;97693.72;5054608;28;20463;-79
2023/03/11 03:07:38;;;;;;;3.15;2.30;;;;;;;6.24;100.00;97692.00;5054794;28;20040;-80
2023/03/11 03:10:05;;;;;;;3.63;2.10;;;;;;;6.29;100.00;97713.88;5054624;28;20477;-78
2023/03/11 03:12:32;;;;;;;1.92;1.73;;;;;;;6.44;100.00;97761.72;5055979;28;20025;-79
2023/03/11 03:14:57;;;;;;;0.70;0.70;;;;;;;6.25;100.00;97756.69;5055836;28;20025;-80
2023/03/11 03:17:26;;;;;;;0.45;0.45;;;;;;;5.82;100.00;97762.09;5055678;28;20386;-79
2023/03/11 03:19:51;;;;;;;0.30;0.30;;;;;;;5.27;100.00;97748.94;5054163;28;20036;-80
2023/03/11 03:22:17;;;;;;;0.30;0.30;;;;;;;4.77;100.00;97754.69;5055719;28;20524;-80
2023/03/11 03:24:43;;;;;;;1.17;0.30;;;;;;;4.43;100.00;97756.00;5055703;28;20036;-79
2023/03/11 03:27:09;;;;;;;0.43;0.43;;;;;;;4.14;100.00;97762.91;5055269;28;20028;-78
2023/03/11 03:29:36;;;;;;;0.45;0.45;;;;;;;4.00;100.00;97767.50;5055348;28;20060;-79
2023/03/11 03:32:05;;;;;;;0.70;0.38;;;;;;;3.74;100.00;97766.88;5054283;28;20037;-79
2023/03/11 03:34:31;;;;;;;0.40;0.40;;;;;;;3.75;100.00;97776.13;5055549;28;20021;-78
2023/03/11 03:36:59;;;;;;;0.40;0.40;;;;;;;3.65;100.00;97779.19;5055642;28;20021;-80
2023/03/11 03:39:25;;;;;;;0.40;0.40;;;;;;;3.56;100.00;97770.94;5056495;28;20111;-79
2023/03/11 03:41:52;;;;;;;0.32;0.32;;;;;;;3.65;100.00;97772.78;5056359;28;20025;-79
2023/03/11 03:44:17;;;;;;;0.50;0.40;;;;;;;3.55;100.00;97799.69;5056108;28;20049;-80
2023/03/11 03:46:44;;;;;;;1.08;0.35;;;;;;;3.36;100.00;97761.88;5056166;28;20382;-81
2023/03/11 03:49:11;;;;;;;0.55;0.50;;;;;;;3.37;100.00;97783.19;5055346;28;20045;-80
2023/03/11 03:51:36;;;;;;;0.30;0.30;;;;;;;3.37;100.00;97805.75;5055223;28;20033;-79
2023/03/11 03:54:05;;;;;;;0.30;0.30;;;;;;;3.26;100.00;97788.75;5053467;28;20343;-79
2023/03/11 03:56:33;;;;;;;0.20;0.20;;;;;;;3.32;100.00;97810.09;5052629;28;20032;-79
2023/03/11 03:58:58;;;;;;;0.40;0.40;;;;;;;3.28;100.00;97814.44;5036347;28;20037;-81
2023/03/11 04:01:26;;;;;;;0.32;0.32;;;;;;;3.21;100.00;97805.16;5053473;28;20044;-80
2023/03/11 04:03:51;;;;;;;0.82;0.40;;;;;;;3.33;100.00;97825.72;5053306;28;20486;-80
2023/03/11 04:06:25;;;;;;;0.80;0.25;;;;;;;3.26;100.00;97823.41;5051989;28;20021;-79
2023/03/11 04:08:52;;;;;;;0.30;0.30;;;;;;;3.29;100.00;97827.25;5035394;28;20021;-80
2023/03/11 04:11:18;;;;;;;9.52;0.40;;;;;;;3.33;100.00;97841.91;5051965;28;20098;-79
2023/03/11 04:13:44;;;;;;;0.10;0.10;;;;;;;3.26;100.00;97850.84;5053928;28;20458;-79
2023/03/11 04:16:16;;;;;;;0.15;0.15;;;;;;;3.33;100.00;97820.06;5055128;28;20035;-78
2023/03/11 04:18:41;;;;;;;0.13;0.13;;;;;;;3.29;100.00;97839.31;5052353;28;20037;-79
2023/03/11 04:21:07;;;;;;;0.60;0.28;;;;;;;3.22;100.00;97846.22;5035232;28;20029;-80
2023/03/11 04:23:34;;;;;;;0.20;0.20;;;;;;;3.16;100.00;97825.66;5053067;28;20499;-79
2023/03/11 04:26:00;;;;;;;0.82;0.50;;;;;;;3.08;100.00;97833.00;5051662;28;20040;-80
2023/03/11 04:28:26;;;;;;;0.20;0.20;;;;;;;3.06;100.00;97848.91;5035224;28;20075;-78
2023/03/11 04:30:51;;;;;;;1.15;0.25;;;;;;;2.98;100.00;97817.56;5051815;28;20414;-79
2023/03/11 04:33:18;;;;;;;0.20;0.20;;;;;;;3.01;100.00;97858.09;5053302;28;20421;-79
2023/03/11 04:35:43;;;;;;;0.32;0.32;;;;;;;2.99;100.00;97861.41;5052880;28;20036;-79
2023/03/11 04:38:10;;;;;;;0.20;0.20;;;;;;;2.96;100.00;97864.47;5054048;28;20029;-80
2023/03/11 04:40:37;;;;;;;0.20;0.20;;;;;;;2.87;100.00;97840.06;5053841;28;20513;-79
2023/03/11 04:43:07;;;;;;;0.20;0.20;;;;;;;2.87;100.00;97861.84;5054037;28;20045;-79
2023/03/11 04:45:37;;;;;;;0.20;0.20;;;;;;;2.83;100.00;97853.63;5053157;28;20136;-79
2023/03/11 04:48:04;;;;;;;0.20;0.20;;;;;;;2.75;100.00;97844.81;5036497;28;20033;-79
2023/03/11 04:50:29;;;;;;;0.85;0.20;;;;;;;2.72;100.00;97867.59;5052799;28;20049;-78
2023/03/11 04:52:55;;;;;;;0.30;0.30;;;;;;;2.69;100.00;97852.44;5054156;28;20029;-80
2023/03/11 04:55:22;;;;;;;0.63;0.55;;;;;;;2.54;100.00;97865.16;5052491;28;20471;-79
2023/03/11 04:57:48;;;;;;;1.25;0.40;;;;;;;2.52;100.00;97864.84;5036548;28;20057;-80
2023/03/11 05:00:15;;;;;;;0.43;0.43;;;;;;;2.59;100.00;97855.94;5052352;28;20382;-80
2023/03/11 05:02:41;;;;;;;0.40;0.40;;;;;;;2.51;100.00;97872.53;5053817;28;20035;-80
2023/03/11 05:05:08;;;;;;;0.30;0.30;;;;;;;2.52;100.00;97885.38;5035692;28;20029;-79
2023/03/11 05:07:36;;;;;;;0.40;0.40;;;;;;;2.48;100.00;97895.31;5051984;28;20146;-79
2023/03/11 05:10:10;;;;;;;0.40;0.40;;;;;;;2.47;100.00;97903.00;5053691;28;20028;-80
2023/03/11 05:12:36;;;;;;;1.08;0.60;;;;;;;2.44;100.00;97878.59;5052531;28;20045;-80
2023/03/11 05:15:04;;;;;;;0.73;0.50;;;;;;;2.14;100.00;97883.69;5052139;28;20064;-79
2023/03/11 05:17:31;;;;;;;0.98;0.40;;;;;;;2.24;100.00;97899.16;5052103;28;20032;-81
2023/03/11 05:19:56;;;;;;;0.65;0.65;;;;;;;1.92;100.00;97864.47;5052110;28;20478;-77
2023/03/11 05:22:23;;;;;;;0.70;0.60;;;;;;;2.22;100.00;97921.41;5053658;28;20033;-80
2023/03/11 05:24:49;;;;;;;0.73;0.70;;;;;;;1.93;100.00;97899.06;5051962;28;20028;-78
2023/03/11 05:27:17;;;;;;;1.10;0.93;;;;;;;2.03;100.00;97922.22;5053108;28;20083;-79
2023/03/11 05:29:44;;;;;;;1.65;0.40;;;;;;;1.96;100.00;97926.22;5053468;28;20025;-78
2023/03/11 05:32:15;;;;;;;0.70;0.70;;;;;;;1.91;100.00;97958.66;5053272;28;20546;-79
2023/03/11 05:34:42;;;;;;;0.55;0.52;;;;;;;1.84;100.00;97944.25;5018579;28;20479;-78
2023/03/11 05:37:07;;;;;;;1.02;0.63;;;;;;;1.75;100.00;97955.63;5053430;28;20021;-78
2023/03/11 05:39:36;;;;;;;0.93;0.80;;;;;;;1.77;100.00;97969.97;5035674;28;20028;-77
2023/03/11 05:42:05;;;;;;;1.17;0.80;;;;;;;1.76;100.00;97974.06;5051626;28;20025;-79
2023/03/11 05:44:31;;;;;;;0.73;0.73;;;;;;;1.67;100.00;97969.34;5035642;28;20174;-78
2023/03/11 05:46:57;;;;;;;1.42;0.90;;;;;;;1.70;100.00;97961.97;5035351;28;20455;-79
2023/03/11 05:49:22;;;;;;;0.80;0.80;;;;;;;1.65;100.00;97962.66;5018575;28;20093;-79
2023/03/11 05:51:49;;;;;;;0.95;0.90;;;;;;;1.62;100.00;97963.63;5052823;28;20390;-79
2023/03/11 05:54:15;;;;;;;0.90;0.65;;;;;;;1.63;100.00;97984.88;5034957;28;20040;-78
2023/03/11 05:56:44;;;;;;;0.70;0.70;;;;;;;1.58;100.00;97965.88;5051482;28;20029;-78
2023/03/11 05:59:13;;;;;;;1.13;0.82;;;;;;;1.52;100.00;97985.47;5035177;28;20071;-78
2023/03/11 06:01:41;;;;;;;0.80;0.80;;;;;;;1.41;100.00;97962.78;5051554;28;20043;-79
2023/03/11 06:04:09;;;;;;;1.25;1.15;;;;;;;1.36;100.00;97989.56;5035020;28;20505;-76
2023/03/11 06:06:35;;;;;;;1.20;1.10;;;;;;;1.17;100.00;97979.03;5050862;28;20033;-79
2023/03/11 06:09:02;;;;;;;1.50;1.30;;;;;;;1.21;100.00;97985.22;5034925;28;20039;-78
2023/03/11 06:11:29;;;;;;;1.52;1.42;;;;;;;1.22;100.00;97998.81;5053057;28;20028;-80
2023/03/11 06:13:57;;;;;;;1.38;1.27;;;;;;;1.21;100.00;98002.88;5035254;28;20516;-78
2023/03/11 06:16:43;;;;;;;3.92;2.25;;;;;;;1.18;100.00;98022.75;5051312;28;20122;-78
2023/03/11 06:19:11;;;;;;;2.72;1.80;;;;;;;1.11;100.00;98009.09;5054805;28;20092;-79
2023/03/11 06:21:37;;;;;;;2.90;2.60;;;;;;;1.07;100.00;98037.41;5055245;28;20454;-77
2023/03/11 06:24:03;;;;;;;2.40;2.20;;;;;;;1.00;100.00;98032.19;5055269;28;20081;-76
2023/03/11 06:26:30;;;;;;;2.85;2.00;;;;;;;1.02;100.00;98047.28;5056391;28;20033;-78
2023/03/11 06:28:55;;;;;;;2.60;2.03;;;;;;;0.96;100.00;98054.84;5055042;28;20431;-88
2023/03/11 06:31:26;;;;;;;2.38;2.13;;;;;;;0.82;100.00;98066.06;5056636;28;20041;-87
2023/03/11 06:34:08;;;;;;;2.67;1.90;;;;;;;0.88;100.00;98067.72;5052927;28;20044;-85
2023/03/11 06:36:33;;;;;;;3.20;2.30;;;;;;;0.79;100.00;98070.63;5056833;28;20466;-89
2023/03/11 06:39:00;;;;;;;4.43;2.30;;;;;;;0.69;100.00;98071.19;5018498;28;20029;-81
2023/03/11 06:41:26;;;;;;;3.13;2.20;;;;;;;0.44;100.00;98036.72;5036779;28;20041;-83
2023/03/11 06:43:51;;;;;;;3.20;2.47;;;;;;;0.67;100.00;98087.72;5035588;28;20044;-83
2023/03/11 06:46:20;;;;;;;3.22;2.47;;;;;;;0.60;100.00;98094.50;5056185;28;20060;-84
2023/03/11 06:48:51;;;;;;;3.50;2.97;;;;;;;0.66;100.00;98098.22;5055973;28;20029;-84
2023/03/11 06:51:19;;;;;;;2.55;2.35;;;;;;;0.74;100.00;98104.22;5052118;28;20124;-79
2023/03/11 06:53:51;;;;;;;2.78;2.47;;;;;;;0.75;100.00;98108.59;5022063;28;20037;-82
2023/03/11 06:56:17;;;;;;;4.03;3.17;;;;;;;0.71;100.00;98113.63;5036173;28;20106;-77
2023/03/11 06:58:42;;;;;;;4.47;3.00;;;;;;;0.64;100.00;98108.38;5056427;28;20029;-80
2023/03/11 07:01:13;;;;;;;4.32;3.35;;;;;;;0.67;100.00;98144.72;5055861;28;20415;-86
2023/03/11 07:03:39;;;;;;;3.50;2.58;;;;;;;0.57;100.00;98138.38;5055891;28;20108;-87
2023/03/11 07:06:12;;;;;;;4.50;3.33;;;;;;;0.44;100.00;98115.38;5039842;28;20041;-81
2023/03/11 07:08:38;;;;;;;3.90;3.05;;;;;;;0.40;100.00;98114.00;5038756;28;20049;-89
2023/03/11 07:11:08;;;;;;;4.75;3.22;;;;;;;0.75;100.00;98165.59;5056063;28;20032;-88
2023/03/11 07:13:49;;;;;;;3.75;2.83;;;;;;;0.71;100.00;98158.59;5056189;28;20111;-87
2023/03/11 07:16:25;;;;;;;3.15;2.65;;;;;;;0.83;100.00;98177.25;5059871;28;20025;-81
2023/03/11 07:18:51;;;;;;;3.63;2.78;;;;;;;0.70;100.00;98169.06;5056251;28;20025;-81
2023/03/11 07:21:19;;;;;;;3.25;2.83;;;;;;;0.81;100.00;98185.38;5054250;28;20041;-82
2023/03/11 07:23:48;;;;;;;3.42;3.03;;;;;;;0.88;100.00;98194.22;5041578;28;20075;-83
2023/03/11 07:26:14;;;;;;;3.28;2.42;;;;;;;0.73;100.00;98184.97;5069964;28;20032;-84
2023/03/11 07:28:41;;;;;;;6.32;3.00;;;;;;;0.82;100.00;98203.78;5062905;28;20106;-84
2023/03/11 07:31:23;;;;;;;4.05;2.80;;;;;;;0.78;100.00;98203.97;5054463;28;20045;-82
2023/03/11 07:33:50;;;;;;;4.05;2.47;;;;;;;0.67;100.00;98197.31;5056940;28;20032;-88
2023/03/11 07:36:20;;;;;;;5.45;3.00;;;;;;;0.82;100.00;98229.88;5056324;28;20054;-84
2023/03/11 07:39:03;;;;;;;4.35;2.78;;;;;;;0.62;100.00;98212.81;5054732;28;20033;-85
2023/03/11 07:41:31;;;;;;;3.58;2.47;;;;;;;0.84;100.00;98246.25;5042703;28;20132;-84
2023/03/11 07:43:58;;;;;;;3.47;2.78;;;;;;;0.70;100.00;98236.50;5061777;28;20051;-84
2023/03/11 07:46:29;;;;;;;7.00;3.00;;;;;;;0.79;100.00;98258.94;5046322;28;20036;-84
2023/03/11 07:48:56;;;;;;;;;;;;;;;0.80;100.00;98249.25;5064296;28;20025;-83
2023/03/11 07:51:25;;;;;;;4.25;2.70;;;;;;;0.81;100.00;98287.34;5061301;28;19935;-82
2023/03/11 07:53:55;;;;;;;3.97;2.70;;;;;;;0.82;100.00;98294.50;5041905;28;20052;-84
2023/03/11 07:56:30;;;;;;;4.18;3.05;;;;;;;0.76;100.00;98307.69;5042175;28;20033;-82
2023/03/11 07:59:13;;;;;;;3.28;2.58;;;;;;;0.71;100.00;98307.56;5048453;28;20045;-85
2023/03/11 08:01:40;;;;;;;3.55;2.45;;;;;;;0.74;100.00;98315.81;5058966;28;20028;-84
2023/03/11 08:04:11;;;;;;;4.07;3.35;;;;;;;0.66;100.00;98311.78;5055194;28;20020;-81
2023/03/11 08:06:38;;;;;;;5.53;2.88;;;;;;;0.63;100.00;98340.03;5054936;28;20025;-82
2023/03/11 08:09:06;;;;;;;5.03;3.33;;;;;;;0.68;100.00;98347.81;5020845;28;20134;-84
2023/03/11 08:11:32;;;;;;;6.07;4.00;;;;;;;0.70;100.00;98353.75;5037412;28;20033;-86
2023/03/11 08:13:58;;;;;;;5.63;4.40;;;;;;;0.72;100.00;98354.84;5054221;28;20024;-85
2023/03/11 08:16:32;;;;;;;18.80;7.03;;;;;;;0.76;100.00;98375.16;5055702;28;20099;-82
2023/03/11 08:18:58;;;;;;;5.40;3.35;;;;;;;0.86;100.00;98382.25;5055054;28;20068;-80
2023/03/11 08:21:25;;;;;;;3.90;3.45;;;;;;;1.02;100.00;98381.09;5053620;28;20029;-84
2023/03/11 08:23:55;;;;;;;6.03;3.40;;;;;;;0.93;100.00;98381.94;5021025;28;20030;-83
2023/03/11 08:26:21;;;;;;;5.38;4.00;;;;;;;0.98;100.00;98394.56;5036842;28;20037;-82
2023/03/11 08:28:48;;;;;;;6.60;2.92;;;;;;;1.06;100.00;98418.28;5037073;28;20065;-81
2023/03/11 08:31:45;;;;;;;9.65;4.07;;;;;;;0.93;100.00;98412.06;5050325;28;20025;-79
2023/03/11 08:34:14;;;;;;;7.30;3.17;;;;;;;1.13;100.00;98431.22;5053817;28;20078;-82
2023/03/11 08:36:39;;;;;;;7.30;2.80;;;;;;;1.07;100.00;98425.47;5051576;28;20478;-80
2023/03/11 08:39:08;;;;;;;7.65;3.45;;;;;;;1.06;100.00;98446.38;5053994;28;20079;-80
2023/03/11 08:41:34;;;;;;;6.78;3.58;;;;;;;1.08;100.00;98452.34;5053363;28;20033;-84
2023/03/11 08:44:01;;;;;;;4.28;3.13;;;;;;;1.15;100.00;98474.50;5055224;28;20551;-82
2023/03/11 08:46:31;;;;;;;4.45;3.15;;;;;;;1.18;100.00;98473.56;5053452;28;20079;-79
2023/03/11 08:48:59;;;;;;;3.83;2.77;;;;;;;1.29;100.00;98487.91;5054510;28;20466;-84
2023/03/11 08:51:25;;;;;;;3.97;2.90;;;;;;;1.20;100.00;98484.34;5054016;28;20069;-79
2023/03/11 08:54:06;;;;;;;3.95;2.88;;;;;;;1.28;100.00;98503.22;5053400;28;20041;-85
2023/03/11 08:56:31;;;;;;;4.70;3.30;;;;;;;1.30;100.00;98508.38;5054316;28;20374;-84
2023/03/11 08:58:58;;;;;;;8.77;2.88;;;;;;;1.35;100.00;98511.31;5053694;28;20401;-85
2023/03/11 09:01:25;;;;;;;4.20;2.70;;;;;;;1.33;100.00;98529.91;5062413;28;20048;-83
2023/03/11 09:03:57;;;;;;;3.53;2.75;;;;;;;1.32;100.00;98529.13;5054095;28;20074;-82
2023/03/11 09:06:24;;;;;;;4.70;3.25;;;;;;;1.29;100.00;98538.53;5067216;28;20043;-83
2023/03/11 09:08:51;;;;;;;3.65;2.90;;;;;;;1.26;100.00;98545.09;5065241;28;20033;-80
2023/03/11 09:11:17;;;;;;;4.35;2.70;;;;;;;1.30;100.00;98548.53;5041305;28;20020;-83
2023/03/11 09:13:43;;;;;;;6.47;3.10;;;;;;;1.24;100.00;98572.94;5052542;28;20036;-81
2023/03/11 09:16:26;;;;;;;5.40;2.88;;;;;;;1.27;100.00;98576.81;5047321;28;20021;-83
2023/03/11 09:18:51;;;;;;;3.10;2.80;;;;;;;1.06;100.00;98567.31;5011992;28;20026;-80
2023/03/11 09:21:17;;;;;;;3.72;2.88;;;;;;;1.24;100.00;98601.06;5035395;28;20032;-78
2023/03/11 09:23:45;;;;;;;3.97;3.17;;;;;;;1.26;100.00;98606.19;5050923;28;20028;-78
2023/03/11 09:26:12;;;;;;;3.70;2.50;;;;;;;1.29;100.00;98597.63;5053100;28;20043;-78
2023/03/11 09:28:39;;;;;;;2.78;2.45;;;;;;;1.46;100.00;98628.97;5035054;28;20040;-84
2023/03/11 09:31:04;;;;;;;1.92;1.58;;;;;;;1.21;100.00;98599.16;5035634;28;20033;-80
2023/03/11 09:33:38;;;;;;;1.60;1.48;;;;;;;1.35;100.00;98628.72;5038882;28;20047;-79
2023/03/11 09:36:05;;;;;;;2.80;1.65;;;;;;;1.38;100.00;98639.78;5030903;28;20514;-78
2023/03/11 09:38:31;;;;;;;3.35;2.10;;;;;;;1.64;100.00;98634.59;5033292;28;20132;-81
2023/03/11 09:41:39;;;;;;;2.67;2.20;;;;;;;1.61;100.00;98634.72;5033382;28;20042;-78
2023/03/11 09:44:13;;;;;;;4.35;2.00;;;;;;;1.86;100.00;98652.03;5032102;28;20138;-77
2023/03/11 09:47:31;;;;;;;4.38;1.85;;;;;;;1.88;100.00;98671.28;5031627;28;20033;-80
2023/03/11 09:50:10;;;;;;;8.90;2.00;;;;;;;1.72;100.00;98700.56;5020790;28;20040;-81
2023/03/11 09:52:47;;;;;;;3.55;1.52;;;;;;;1.62;100.00;98687.75;5033462;28;20041;-80
2023/03/11 09:55:51;;;;;;;1.98;1.73;;;;;;;1.51;100.00;98712.00;5035835;28;20029;-79
2023/03/11 09:58:37;;;;;;;2.60;1.52;;;;;;;1.54;100.00;98722.31;5049898;28;20124;-79
2023/03/11 10:01:15;;;;;;;1.60;1.30;;;;;;;1.41;100.00;98736.53;5053356;28;20085;-77
2023/03/11 10:03:42;;;;;;;4.95;2.05;;;;;;;1.22;100.00;98724.50;5056310;28;20037;-83
2023/03/11 10:06:31;;;;;;;9.18;2.25;;;;;;;1.33;100.00;98738.91;5038826;28;20048;-83
2023/03/11 10:09:31;;;;;;;3.95;2.67;;;;;;;1.50;100.00;98745.00;5055626;28;20115;-80
2023/03/11 10:12:33;;;;;;;4.35;2.28;;;;;;;1.59;100.00;98761.88;5056749;28;20040;-81
2023/03/11 10:15:26;;;;;;;6.75;3.20;;;;;;;1.84;100.00;98772.81;5055009;28;20036;-82
2023/03/11 10:18:14;;;;;;;5.85;2.83;;;;;;;2.02;100.00;98762.75;5054877;28;20029;-78
2023/03/11 10:20:53;;;;;;;5.00;3.22;;;;;;;2.09;100.00;98754.78;5036597;28;20083;-77
2023/03/11 10:24:13;;;;;;;6.63;3.05;;;;;;;2.41;100.00;98780.66;5048962;28;20039;-78
2023/03/11 10:27:02;;;;;;;6.40;2.45;;;;;;;2.47;100.00;98785.19;5054442;28;20044;-80
2023/03/11 10:29:32;;;;;;;3.00;2.28;;;;;;;2.37;100.00;98752.66;5055200;28;20045;-79
2023/03/11 10:32:17;;;;;;;4.85;2.55;;;;;;;2.52;100.00;98800.69;5018765;28;20059;-83
2023/03/11 10:34:54;;;;;;;4.07;2.50;;;;;;;2.53;100.00;98796.63;5037515;28;20084;-82
2023/03/11 10:37:28;;;;;;;4.03;2.60;;;;;;;2.53;100.00;98790.97;5037906;28;20183;-85
2023/03/11 10:39:54;;;;;;;5.15;2.72;;;;;;;2.68;100.00;98812.38;5018950;28;20033;-86
2023/03/11 10:42:27;;;;;;;3.72;2.33;;;;;;;2.89;100.00;98809.75;5036073;28;20084;-84
2023/03/11 10:44:52;;;;;;;2.70;2.38;;;;;;;3.01;100.00;98791.84;5020237;28;20061;-81
2023/03/11 10:47:21;;;;;;;4.25;2.53;;;;;;;3.11;100.00;98813.91;5038311;28;20152;-82
2023/03/11 10:50:03;;;;;;;4.28;2.63;;;;;;;3.19;100.00;98822.78;5036041;28;20084;-85
2023/03/11 10:52:28;;;;;;;4.32;2.42;;;;;;;3.16;100.00;98818.88;5036757;28;20060;-80
2023/03/11 10:55:05;;;;;;;4.32;2.72;;;;;;;3.20;100.00;98827.16;5036464;28;20453;-80
2023/03/11 10:57:37;;;;;;;4.45;2.70;;;;;;;3.14;100.00;98829.06;5037072;28;20056;-85
2023/03/11 11:00:16;;;;;;;3.38;2.45;;;;;;;3.03;100.00;98835.25;5035620;28;20033;-83
2023/03/11 11:03:11;;;;;;;4.30;2.28;;;;;;;3.06;100.00;98847.63;5018604;28;20045;-84
2023/03/11 11:05:36;;;;;;;5.43;2.90;;;;;;;3.21;100.00;98846.44;5034884;28;20025;-81
2023/03/11 11:08:12;;;;;;;6.57;2.58;;;;;;;3.51;100.00;98864.31;5016939;28;20033;-84
2023/03/11 11:10:49;;;;;;;4.43;2.85;;;;;;;3.88;100.00;98859.22;5034574;28;20533;-82
2023/03/11 11:13:17;;;;;;;4.57;2.95;;;;;;;4.14;100.00;98847.38;5034904;28;20479;-84
2023/03/11 11:16:15;;;;;;;4.85;2.60;;;;;;;4.54;100.00;98866.63;5035750;28;20038;-83
2023/03/11 11:18:43;;;;;;;5.90;2.60;;;;;;;4.76;100.00;98870.63;5064560;28;20040;-83
2023/03/11 11:21:15;;;;;;;5.13;2.80;;;;;;;4.60;100.00;98828.72;5064541;28;20033;-88
2023/03/11 11:23:46;;;;;;;4.00;2.40;;;;;;;4.64;100.00;98863.22;5054508;28;20029;-81
2023/03/11 11:26:23;;;;;;;2.90;2.47;;;;;;;4.35;100.00;98880.97;5055054;28;20029;-79
2023/03/11 11:29:20;;;;;;;4.70;2.50;;;;;;;3.65;100.00;98905.19;5054783;28;20119;-80
2023/03/11 11:31:47;;;;;;;4.25;2.90;;;;;;;3.35;100.00;98929.66;5052465;28;20033;-86
2023/03/11 11:34:29;;;;;;;3.92;2.65;;;;;;;3.11;100.00;98923.16;5053723;28;20025;-86
2023/03/11 11:37:00;;;;;;;5.35;2.55;;;;;;;3.13;100.00;98912.94;5058771;28;20066;-85
2023/03/11 11:39:30;;;;;;;2.78;2.25;;;;;;;3.36;100.00;98914.28;5063222;28;20386;-86
2023/03/11 11:41:55;;;;;;;2.75;2.45;;;;;;;3.78;100.00;98905.72;5044462;28;20170;-84
2023/03/11 11:44:40;;;;;;;2.90;2.22;;;;;;;3.93;100.00;98919.94;5054814;28;20084;-84
2023/03/11 11:47:17;;;;;;;4.22;2.50;;;;;;;3.78;100.00;98936.78;5053293;28;20382;-82
2023/03/11 11:49:49;;;;;;;4.80;2.83;;;;;;;3.63;100.00;98941.56;5037680;28;20482;-83
2023/03/11 11:52:24;;;;;;;4.82;2.80;;;;;;;3.62;100.00;98948.50;5056410;28;20048;-83